sensor_id;sensor_type;location;lat;lon;timestamp;temperature;humidity
52381;DHT22;38310;52.796;6.942;2023-08-12T00:01:50;19.60;99.90
52381;DHT22;38310;52.796;6.942;2023-08-12T00:04:16;19.60;99.90
52381;DHT22;38310;52.796;6.942;2023-08-12T00:06:42;19.60;99.90
52381;DHT22;38310;52.796;6.942;2023-08-12T00:09:09;19.60;99.90
52381;DHT22;38310;52.796;6.942;2023-08-12T00:11:37;19.50;99.90
52381;DHT22;38310;52.796;6.942;2023-08-12T00:14:03;19.60;99.90
52381;DHT22;38310;52.796;6.942;2023-08-12T00:16:29;19.60;99.90
52381;DHT22;38310;52.796;6.942;2023-08-12T00:18:55;19.50;99.90
52381;DHT22;38310;52.796;6.942;2023-08-12T00:21:20;19.50;99.90
52381;DHT22;38310;52.796;6.942;2023-08-12T00:23:46;19.50;99.90
52381;DHT22;38310;52.796;6.942;2023-08-12T00:26:13;19.50;99.90
52381;DHT22;38310;52.796;6.942;2023-08-12T00:28:39;19.50;99.90
52381;DHT22;38310;52.796;6.942;2023-08-12T00:31:04;19.50;99.90
52381;DHT22;38310;52.796;6.942;2023-08-12T00:33:30;19.50;99.90
52381;DHT22;38310;52.796;6.942;2023-08-12T00:35:56;19.40;99.90
52381;DHT22;38310;52.796;6.942;2023-08-12T00:38:22;19.40;99.90
52381;DHT22;38310;52.796;6.942;2023-08-12T00:40:48;19.40;99.90
52381;DHT22;38310;52.796;6.942;2023-08-12T00:43:13;19.40;99.90
52381;DHT22;38310;52.796;6.942;2023-08-12T00:45:39;19.40;99.90
52381;DHT22;38310;52.796;6.942;2023-08-12T00:48:06;19.40;99.90
52381;DHT22;38310;52.796;6.942;2023-08-12T00:50:33;19.40;99.90
52381;DHT22;38310;52.796;6.942;2023-08-12T00:52:59;19.40;99.90
52381;DHT22;38310;52.796;6.942;2023-08-12T00:55:25;19.30;99.90
52381;DHT22;38310;52.796;6.942;2023-08-12T00:57:51;19.30;99.90
52381;DHT22;38310;52.796;6.942;2023-08-12T01:00:18;19.30;99.90
52381;DHT22;38310;52.796;6.942;2023-08-12T01:02:47;19.30;99.90
52381;DHT22;38310;52.796;6.942;2023-08-12T01:05:14;19.30;99.90
52381;DHT22;38310;52.796;6.942;2023-08-12T01:07:42;19.30;99.90
52381;DHT22;38310;52.796;6.942;2023-08-12T01:10:09;19.30;99.90
52381;DHT22;38310;52.796;6.942;2023-08-12T01:13:06;19.20;99.90
52381;DHT22;38310;52.796;6.942;2023-08-12T01:15:33;19.30;99.90
52381;DHT22;38310;52.796;6.942;2023-08-12T01:18:00;19.20;99.90
52381;DHT22;38310;52.796;6.942;2023-08-12T01:20:28;19.20;99.90
52381;DHT22;38310;52.796;6.942;2023-08-12T01:25:36;19.20;99.90
52381;DHT22;38310;52.796;6.942;2023-08-12T01:28:02;19.20;99.90
52381;DHT22;38310;52.796;6.942;2023-08-12T01:30:27;19.20;99.90
52381;DHT22;38310;52.796;6.942;2023-08-12T01:33:02;19.20;99.90
52381;DHT22;38310;52.796;6.942;2023-08-12T01:35:44;19.20;99.90
52381;DHT22;38310;52.796;6.942;2023-08-12T01:38:10;19.20;99.90
52381;DHT22;38310;52.796;6.942;2023-08-12T01:40:38;19.20;99.90
52381;DHT22;38310;52.796;6.942;2023-08-12T01:43:05;19.20;99.90
52381;DHT22;38310;52.796;6.942;2023-08-12T01:45:33;19.20;99.90
52381;DHT22;38310;52.796;6.942;2023-08-12T01:47:59;19.20;99.90
52381;DHT22;38310;52.796;6.942;2023-08-12T01:50:25;19.20;99.90
52381;DHT22;38310;52.796;6.942;2023-08-12T01:52:51;19.20;99.90
52381;DHT22;38310;52.796;6.942;2023-08-12T01:55:17;19.20;99.90
52381;DHT22;38310;52.796;6.942;2023-08-12T01:57:43;19.20;99.90
52381;DHT22;38310;52.796;6.942;2023-08-12T02:00:09;19.20;99.90
52381;DHT22;38310;52.796;6.942;2023-08-12T02:02:34;19.20;99.90
52381;DHT22;38310;52.796;6.942;2023-08-12T02:05:00;19.20;99.90
52381;DHT22;38310;52.796;6.942;2023-08-12T02:07:26;19.20;99.90
52381;DHT22;38310;52.796;6.942;2023-08-12T02:09:51;19.20;99.90
52381;DHT22;38310;52.796;6.942;2023-08-12T02:12:17;19.20;99.90
52381;DHT22;38310;52.796;6.942;2023-08-12T02:14:43;19.20;99.90
52381;DHT22;38310;52.796;6.942;2023-08-12T02:17:09;19.20;99.90
52381;DHT22;38310;52.796;6.942;2023-08-12T02:19:34;19.10;99.90
52381;DHT22;38310;52.796;6.942;2023-08-12T02:22:02;19.10;99.90
52381;DHT22;38310;52.796;6.942;2023-08-12T02:24:29;19.10;99.90
52381;DHT22;38310;52.796;6.942;2023-08-12T02:26:55;19.10;99.90
52381;DHT22;38310;52.796;6.942;2023-08-12T02:29:20;19.10;99.90
52381;DHT22;38310;52.796;6.942;2023-08-12T02:31:46;19.10;99.90
52381;DHT22;38310;52.796;6.942;2023-08-12T02:34:12;19.20;99.90
52381;DHT22;38310;52.796;6.942;2023-08-12T02:36:37;19.10;99.90
52381;DHT22;38310;52.796;6.942;2023-08-12T02:39:03;19.10;99.90
52381;DHT22;38310;52.796;6.942;2023-08-12T02:41:30;19.20;99.90
52381;DHT22;38310;52.796;6.942;2023-08-12T02:43:56;19.20;99.90
52381;DHT22;38310;52.796;6.942;2023-08-12T02:46:22;19.20;99.90
52381;DHT22;38310;52.796;6.942;2023-08-12T02:48:48;19.20;99.90
52381;DHT22;38310;52.796;6.942;2023-08-12T02:51:14;19.20;99.90
52381;DHT22;38310;52.796;6.942;2023-08-12T02:53:39;19.20;99.90
52381;DHT22;38310;52.796;6.942;2023-08-12T02:56:05;19.20;99.90
52381;DHT22;38310;52.796;6.942;2023-08-12T02:58:31;19.20;99.90
52381;DHT22;38310;52.796;6.942;2023-08-12T03:00:56;19.10;99.90
52381;DHT22;38310;52.796;6.942;2023-08-12T03:03:22;19.20;99.90
52381;DHT22;38310;52.796;6.942;2023-08-12T03:05:48;19.20;99.90
52381;DHT22;38310;52.796;6.942;2023-08-12T03:08:14;19.20;99.90
52381;DHT22;38310;52.796;6.942;2023-08-12T03:10:40;19.20;99.90
52381;DHT22;38310;52.796;6.942;2023-08-12T03:13:06;19.20;99.90
52381;DHT22;38310;52.796;6.942;2023-08-12T03:15:32;19.20;99.90
52381;DHT22;38310;52.796;6.942;2023-08-12T03:17:58;19.20;99.90
52381;DHT22;38310;52.796;6.942;2023-08-12T03:20:24;19.20;99.90
52381;DHT22;38310;52.796;6.942;2023-08-12T03:22:49;19.20;99.90
52381;DHT22;38310;52.796;6.942;2023-08-12T03:25:15;19.20;99.90
52381;DHT22;38310;52.796;6.942;2023-08-12T03:27:41;19.20;99.90
52381;DHT22;38310;52.796;6.942;2023-08-12T03:30:07;19.20;99.90
52381;DHT22;38310;52.796;6.942;2023-08-12T03:32:34;19.20;99.90
52381;DHT22;38310;52.796;6.942;2023-08-12T03:34:59;19.10;99.90
52381;DHT22;38310;52.796;6.942;2023-08-12T03:37:26;19.10;99.90
52381;DHT22;38310;52.796;6.942;2023-08-12T03:39:52;19.10;99.90
52381;DHT22;38310;52.796;6.942;2023-08-12T03:42:17;19.00;99.90
52381;DHT22;38310;52.796;6.942;2023-08-12T03:44:44;19.00;99.90
52381;DHT22;38310;52.796;6.942;2023-08-12T03:47:10;19.00;99.90
52381;DHT22;38310;52.796;6.942;2023-08-12T03:49:36;19.00;99.90
52381;DHT22;38310;52.796;6.942;2023-08-12T03:52:02;19.00;99.90
52381;DHT22;38310;52.796;6.942;2023-08-12T03:54:28;19.00;99.90
52381;DHT22;38310;52.796;6.942;2023-08-12T03:56:54;18.90;99.90
52381;DHT22;38310;52.796;6.942;2023-08-12T03:59:20;18.90;99.90
52381;DHT22;38310;52.796;6.942;2023-08-12T04:01:45;18.90;99.90
52381;DHT22;38310;52.796;6.942;2023-08-12T04:04:11;18.90;99.90
52381;DHT22;38310;52.796;6.942;2023-08-12T04:06:37;18.90;99.90
52381;DHT22;38310;52.796;6.942;2023-08-12T04:09:03;18.90;99.90
52381;DHT22;38310;52.796;6.942;2023-08-12T04:11:29;18.80;99.90
52381;DHT22;38310;52.796;6.942;2023-08-12T04:13:55;18.80;99.90
52381;DHT22;38310;52.796;6.942;2023-08-12T04:16:21;18.90;99.90
52381;DHT22;38310;52.796;6.942;2023-08-12T04:18:47;18.80;99.90
52381;DHT22;38310;52.796;6.942;2023-08-12T04:21:13;18.90;99.90
52381;DHT22;38310;52.796;6.942;2023-08-12T04:23:39;18.80;99.90
52381;DHT22;38310;52.796;6.942;2023-08-12T04:26:05;18.80;99.90
52381;DHT22;38310;52.796;6.942;2023-08-12T04:28:31;18.90;99.90
52381;DHT22;38310;52.796;6.942;2023-08-12T04:30:56;18.80;99.90
52381;DHT22;38310;52.796;6.942;2023-08-12T04:33:23;18.80;99.90
52381;DHT22;38310;52.796;6.942;2023-08-12T04:35:49;18.90;99.90
52381;DHT22;38310;52.796;6.942;2023-08-12T04:38:15;18.90;99.90
52381;DHT22;38310;52.796;6.942;2023-08-12T04:40:42;18.90;99.90
52381;DHT22;38310;52.796;6.942;2023-08-12T04:43:08;18.90;99.90
52381;DHT22;38310;52.796;6.942;2023-08-12T04:45:34;18.90;99.90
52381;DHT22;38310;52.796;6.942;2023-08-12T04:48:00;18.90;99.90
52381;DHT22;38310;52.796;6.942;2023-08-12T04:50:29;18.90;99.90
52381;DHT22;38310;52.796;6.942;2023-08-12T04:52:56;18.90;99.90
52381;DHT22;38310;52.796;6.942;2023-08-12T04:55:21;18.90;99.90
52381;DHT22;38310;52.796;6.942;2023-08-12T04:57:47;18.90;99.90
52381;DHT22;38310;52.796;6.942;2023-08-12T05:00:13;18.90;99.90
52381;DHT22;38310;52.796;6.942;2023-08-12T05:02:40;18.90;99.90
52381;DHT22;38310;52.796;6.942;2023-08-12T05:05:05;18.90;99.90
52381;DHT22;38310;52.796;6.942;2023-08-12T05:07:31;19.00;99.90
52381;DHT22;38310;52.796;6.942;2023-08-12T05:09:59;18.90;99.90
52381;DHT22;38310;52.796;6.942;2023-08-12T05:12:25;18.90;99.90
52381;DHT22;38310;52.796;6.942;2023-08-12T05:14:50;19.00;99.90
52381;DHT22;38310;52.796;6.942;2023-08-12T05:17:16;19.00;99.90
52381;DHT22;38310;52.796;6.942;2023-08-12T05:19:42;19.00;99.90
52381;DHT22;38310;52.796;6.942;2023-08-12T05:22:07;19.00;99.90
52381;DHT22;38310;52.796;6.942;2023-08-12T05:24:33;19.00;99.90
52381;DHT22;38310;52.796;6.942;2023-08-12T05:26:59;19.10;99.90
52381;DHT22;38310;52.796;6.942;2023-08-12T05:29:24;19.00;99.90
52381;DHT22;38310;52.796;6.942;2023-08-12T05:31:50;19.10;99.90
52381;DHT22;38310;52.796;6.942;2023-08-12T05:34:16;19.10;99.90
52381;DHT22;38310;52.796;6.942;2023-08-12T05:36:41;19.10;99.90
52381;DHT22;38310;52.796;6.942;2023-08-12T05:39:07;19.20;99.90
52381;DHT22;38310;52.796;6.942;2023-08-12T05:41:33;19.20;99.90
52381;DHT22;38310;52.796;6.942;2023-08-12T05:43:58;19.20;99.90
52381;DHT22;38310;52.796;6.942;2023-08-12T05:46:24;19.20;99.90
52381;DHT22;38310;52.796;6.942;2023-08-12T05:48:50;19.20;99.90
52381;DHT22;38310;52.796;6.942;2023-08-12T05:51:15;19.30;99.90
52381;DHT22;38310;52.796;6.942;2023-08-12T05:53:41;19.30;99.90
52381;DHT22;38310;52.796;6.942;2023-08-12T05:56:07;19.40;99.90
52381;DHT22;38310;52.796;6.942;2023-08-12T05:58:33;19.40;99.90
52381;DHT22;38310;52.796;6.942;2023-08-12T06:00:58;19.40;99.90
52381;DHT22;38310;52.796;6.942;2023-08-12T06:03:24;19.50;99.90
52381;DHT22;38310;52.796;6.942;2023-08-12T06:05:50;19.50;99.90
52381;DHT22;38310;52.796;6.942;2023-08-12T06:08:15;19.60;99.90
52381;DHT22;38310;52.796;6.942;2023-08-12T06:10:41;19.60;99.90
52381;DHT22;38310;52.796;6.942;2023-08-12T06:13:07;19.70;99.90
52381;DHT22;38310;52.796;6.942;2023-08-12T06:15:33;19.80;99.90
52381;DHT22;38310;52.796;6.942;2023-08-12T06:18:00;19.80;99.90
52381;DHT22;38310;52.796;6.942;2023-08-12T06:20:25;19.90;99.90
52381;DHT22;38310;52.796;6.942;2023-08-12T06:22:52;20.10;99.90
52381;DHT22;38310;52.796;6.942;2023-08-12T06:25:18;20.20;99.90
52381;DHT22;38310;52.796;6.942;2023-08-12T06:27:45;20.30;99.90
52381;DHT22;38310;52.796;6.942;2023-08-12T06:30:12;20.30;99.90
52381;DHT22;38310;52.796;6.942;2023-08-12T06:32:38;20.40;99.90
52381;DHT22;38310;52.796;6.942;2023-08-12T06:35:04;20.40;99.90
52381;DHT22;38310;52.796;6.942;2023-08-12T06:37:30;20.40;99.90
52381;DHT22;38310;52.796;6.942;2023-08-12T06:39:56;20.40;99.90
52381;DHT22;38310;52.796;6.942;2023-08-12T06:42:22;20.50;99.90
52381;DHT22;38310;52.796;6.942;2023-08-12T06:44:57;20.50;99.90
52381;DHT22;38310;52.796;6.942;2023-08-12T06:47:23;20.50;99.90
52381;DHT22;38310;52.796;6.942;2023-08-12T06:49:49;20.60;99.90
52381;DHT22;38310;52.796;6.942;2023-08-12T06:52:15;20.70;99.90
52381;DHT22;38310;52.796;6.942;2023-08-12T06:54:42;20.60;99.90
52381;DHT22;38310;52.796;6.942;2023-08-12T06:57:07;20.60;99.90
52381;DHT22;38310;52.796;6.942;2023-08-12T06:59:33;20.60;99.90
52381;DHT22;38310;52.796;6.942;2023-08-12T07:01:59;20.60;99.90
52381;DHT22;38310;52.796;6.942;2023-08-12T07:04:24;20.60;99.90
52381;DHT22;38310;52.796;6.942;2023-08-12T07:06:51;20.60;99.90
52381;DHT22;38310;52.796;6.942;2023-08-12T07:09:16;20.60;99.90
52381;DHT22;38310;52.796;6.942;2023-08-12T07:11:42;20.60;99.90
52381;DHT22;38310;52.796;6.942;2023-08-12T07:14:08;20.60;99.90
52381;DHT22;38310;52.796;6.942;2023-08-12T07:16:33;20.50;99.90
52381;DHT22;38310;52.796;6.942;2023-08-12T07:18:59;20.50;99.90
52381;DHT22;38310;52.796;6.942;2023-08-12T07:21:25;20.50;99.90
52381;DHT22;38310;52.796;6.942;2023-08-12T07:23:50;21.00;99.90
52381;DHT22;38310;52.796;6.942;2023-08-12T07:26:16;20.50;99.90
52381;DHT22;38310;52.796;6.942;2023-08-12T07:28:42;20.50;99.90
52381;DHT22;38310;52.796;6.942;2023-08-12T07:31:08;20.50;99.90
52381;DHT22;38310;52.796;6.942;2023-08-12T07:33:34;20.50;99.90
52381;DHT22;38310;52.796;6.942;2023-08-12T07:36:00;20.50;99.90
52381;DHT22;38310;52.796;6.942;2023-08-12T07:38:26;20.50;99.90
52381;DHT22;38310;52.796;6.942;2023-08-12T07:40:52;20.50;99.90
52381;DHT22;38310;52.796;6.942;2023-08-12T07:43:18;20.50;99.90
52381;DHT22;38310;52.796;6.942;2023-08-12T07:45:43;20.40;99.90
52381;DHT22;38310;52.796;6.942;2023-08-12T07:48:09;20.50;99.90
52381;DHT22;38310;52.796;6.942;2023-08-12T07:50:35;20.50;99.90
52381;DHT22;38310;52.796;6.942;2023-08-12T07:53:00;20.40;99.90
52381;DHT22;38310;52.796;6.942;2023-08-12T07:55:27;20.30;99.90
52381;DHT22;38310;52.796;6.942;2023-08-12T07:57:53;20.40;99.90
52381;DHT22;38310;52.796;6.942;2023-08-12T08:00:19;20.40;99.90
52381;DHT22;38310;52.796;6.942;2023-08-12T08:02:45;20.40;99.90
52381;DHT22;38310;52.796;6.942;2023-08-12T08:05:11;20.30;99.90
52381;DHT22;38310;52.796;6.942;2023-08-12T08:07:36;20.40;99.90
52381;DHT22;38310;52.796;6.942;2023-08-12T08:10:03;20.40;99.90
52381;DHT22;38310;52.796;6.942;2023-08-12T08:12:28;20.40;99.90
52381;DHT22;38310;52.796;6.942;2023-08-12T08:14:54;20.30;99.90
52381;DHT22;38310;52.796;6.942;2023-08-12T08:17:20;20.30;99.90
52381;DHT22;38310;52.796;6.942;2023-08-12T08:19:45;20.30;99.90
52381;DHT22;38310;52.796;6.942;2023-08-12T08:22:11;20.20;99.90
52381;DHT22;38310;52.796;6.942;2023-08-12T08:24:38;20.20;99.90
52381;DHT22;38310;52.796;6.942;2023-08-12T08:27:04;20.20;99.90
52381;DHT22;38310;52.796;6.942;2023-08-12T08:29:30;20.20;99.90
52381;DHT22;38310;52.796;6.942;2023-08-12T08:31:56;20.20;99.90
52381;DHT22;38310;52.796;6.942;2023-08-12T08:34:21;20.20;99.90
52381;DHT22;38310;52.796;6.942;2023-08-12T08:36:47;20.20;99.90
52381;DHT22;38310;52.796;6.942;2023-08-12T08:39:13;20.20;99.90
52381;DHT22;38310;52.796;6.942;2023-08-12T08:41:40;20.20;99.90
52381;DHT22;38310;52.796;6.942;2023-08-12T08:44:09;20.20;99.90
52381;DHT22;38310;52.796;6.942;2023-08-12T08:46:35;20.20;99.90
52381;DHT22;38310;52.796;6.942;2023-08-12T08:49:01;20.20;99.90
52381;DHT22;38310;52.796;6.942;2023-08-12T08:51:30;20.10;99.90
52381;DHT22;38310;52.796;6.942;2023-08-12T08:53:57;20.10;99.90
52381;DHT22;38310;52.796;6.942;2023-08-12T08:56:24;20.10;99.90
52381;DHT22;38310;52.796;6.942;2023-08-12T08:58:50;20.10;99.90
52381;DHT22;38310;52.796;6.942;2023-08-12T09:01:17;20.10;99.90
52381;DHT22;38310;52.796;6.942;2023-08-12T09:03:44;20.20;99.90
52381;DHT22;38310;52.796;6.942;2023-08-12T09:06:10;20.20;99.90
52381;DHT22;38310;52.796;6.942;2023-08-12T09:08:37;20.20;99.90
52381;DHT22;38310;52.796;6.942;2023-08-12T09:11:06;20.10;99.90
52381;DHT22;38310;52.796;6.942;2023-08-12T09:13:33;20.10;99.90
52381;DHT22;38310;52.796;6.942;2023-08-12T09:15:58;20.20;99.90
52381;DHT22;38310;52.796;6.942;2023-08-12T09:18:25;20.20;99.90
52381;DHT22;38310;52.796;6.942;2023-08-12T09:20:51;20.10;99.90
52381;DHT22;38310;52.796;6.942;2023-08-12T09:23:17;20.10;99.90
52381;DHT22;38310;52.796;6.942;2023-08-12T09:25:44;20.10;99.90
52381;DHT22;38310;52.796;6.942;2023-08-12T09:28:11;20.10;99.90
52381;DHT22;38310;52.796;6.942;2023-08-12T09:30:37;20.00;99.90
52381;DHT22;38310;52.796;6.942;2023-08-12T09:33:07;19.90;99.90
52381;DHT22;38310;52.796;6.942;2023-08-12T09:35:35;19.90;99.90
52381;DHT22;38310;52.796;6.942;2023-08-12T09:38:04;19.90;99.90
52381;DHT22;38310;52.796;6.942;2023-08-12T09:40:35;20.00;99.90
52381;DHT22;38310;52.796;6.942;2023-08-12T09:43:01;19.90;99.90
52381;DHT22;38310;52.796;6.942;2023-08-12T09:45:27;20.00;99.90
52381;DHT22;38310;52.796;6.942;2023-08-12T09:47:57;19.80;99.90
52381;DHT22;38310;52.796;6.942;2023-08-12T09:50:24;19.80;99.90
52381;DHT22;38310;52.796;6.942;2023-08-12T09:52:52;19.70;99.90
52381;DHT22;38310;52.796;6.942;2023-08-12T09:55:20;19.60;99.90
52381;DHT22;38310;52.796;6.942;2023-08-12T09:57:49;19.60;99.90
52381;DHT22;38310;52.796;6.942;2023-08-12T10:00:16;19.40;99.90
52381;DHT22;38310;52.796;6.942;2023-08-12T10:02:44;19.50;99.90
52381;DHT22;38310;52.796;6.942;2023-08-12T10:05:32;19.50;99.90
52381;DHT22;38310;52.796;6.942;2023-08-12T10:07:59;19.40;99.90
52381;DHT22;38310;52.796;6.942;2023-08-12T10:10:30;19.30;99.90
52381;DHT22;38310;52.796;6.942;2023-08-12T10:12:58;19.30;99.90
52381;DHT22;38310;52.796;6.942;2023-08-12T10:15:24;19.30;99.90
52381;DHT22;38310;52.796;6.942;2023-08-12T10:17:51;19.30;99.90
52381;DHT22;38310;52.796;6.942;2023-08-12T10:20:21;19.30;99.90
52381;DHT22;38310;52.796;6.942;2023-08-12T10:22:48;19.40;99.90
52381;DHT22;38310;52.796;6.942;2023-08-12T10:25:15;19.30;99.90
52381;DHT22;38310;52.796;6.942;2023-08-12T10:27:41;19.40;99.90
52381;DHT22;38310;52.796;6.942;2023-08-12T10:30:07;19.40;99.90
52381;DHT22;38310;52.796;6.942;2023-08-12T10:32:33;19.50;99.90
52381;DHT22;38310;52.796;6.942;2023-08-12T10:35:00;19.50;99.90
52381;DHT22;38310;52.796;6.942;2023-08-12T10:37:26;19.60;99.90
52381;DHT22;38310;52.796;6.942;2023-08-12T10:39:56;19.50;99.90
52381;DHT22;38310;52.796;6.942;2023-08-12T10:42:44;19.50;99.90
52381;DHT22;38310;52.796;6.942;2023-08-12T10:45:11;19.60;99.90
52381;DHT22;38310;52.796;6.942;2023-08-12T10:48:18;19.50;99.90
52381;DHT22;38310;52.796;6.942;2023-08-12T10:50:51;19.60;99.90
52381;DHT22;38310;52.796;6.942;2023-08-12T10:53:32;19.60;99.90
52381;DHT22;38310;52.796;6.942;2023-08-12T10:56:01;19.60;99.90
52381;DHT22;38310;52.796;6.942;2023-08-12T10:58:46;19.60;99.90
52381;DHT22;38310;52.796;6.942;2023-08-12T11:01:19;19.70;99.90
52381;DHT22;38310;52.796;6.942;2023-08-12T11:03:47;19.70;99.90
52381;DHT22;38310;52.796;6.942;2023-08-12T11:06:13;20.20;99.90
52381;DHT22;38310;52.796;6.942;2023-08-12T11:08:52;19.80;99.90
52381;DHT22;38310;52.796;6.942;2023-08-12T11:11:25;19.80;99.90
52381;DHT22;38310;52.796;6.942;2023-08-12T11:13:58;19.90;99.90
52381;DHT22;38310;52.796;6.942;2023-08-12T11:16:37;20.00;99.90
52381;DHT22;38310;52.796;6.942;2023-08-12T11:19:03;20.20;99.90
52381;DHT22;38310;52.796;6.942;2023-08-12T11:21:30;20.30;99.90
52381;DHT22;38310;52.796;6.942;2023-08-12T11:23:55;20.50;99.90
52381;DHT22;38310;52.796;6.942;2023-08-12T11:26:25;20.60;99.90
52381;DHT22;38310;52.796;6.942;2023-08-12T11:28:50;20.80;99.90
52381;DHT22;38310;52.796;6.942;2023-08-12T11:31:17;20.80;99.90
52381;DHT22;38310;52.796;6.942;2023-08-12T11:33:44;20.90;99.90
52381;DHT22;38310;52.796;6.942;2023-08-12T11:36:10;20.90;99.90
52381;DHT22;38310;52.796;6.942;2023-08-12T11:38:37;20.80;99.90
52381;DHT22;38310;52.796;6.942;2023-08-12T11:41:03;20.70;99.90
52381;DHT22;38310;52.796;6.942;2023-08-12T11:43:31;20.70;99.90
52381;DHT22;38310;52.796;6.942;2023-08-12T11:45:57;20.70;99.90
52381;DHT22;38310;52.796;6.942;2023-08-12T11:48:24;20.70;99.90
52381;DHT22;38310;52.796;6.942;2023-08-12T11:50:50;20.70;99.90
52381;DHT22;38310;52.796;6.942;2023-08-12T11:53:16;20.70;99.90
52381;DHT22;38310;52.796;6.942;2023-08-12T11:55:42;20.70;99.90
52381;DHT22;38310;52.796;6.942;2023-08-12T11:58:09;20.90;99.90
52381;DHT22;38310;52.796;6.942;2023-08-12T12:00:34;20.90;99.90
52381;DHT22;38310;52.796;6.942;2023-08-12T12:03:01;21.10;99.90
52381;DHT22;38310;52.796;6.942;2023-08-12T12:05:29;21.20;99.90
52381;DHT22;38310;52.796;6.942;2023-08-12T12:07:56;21.20;99.90
52381;DHT22;38310;52.796;6.942;2023-08-12T12:10:27;21.10;99.90
52381;DHT22;38310;52.796;6.942;2023-08-12T12:12:55;21.40;99.90
52381;DHT22;38310;52.796;6.942;2023-08-12T12:15:21;21.50;99.90
52381;DHT22;38310;52.796;6.942;2023-08-12T12:17:48;21.70;99.90
52381;DHT22;38310;52.796;6.942;2023-08-12T12:20:14;21.80;99.90
52381;DHT22;38310;52.796;6.942;2023-08-12T12:22:42;21.90;99.90
52381;DHT22;38310;52.796;6.942;2023-08-12T12:25:11;22.10;99.90
52381;DHT22;38310;52.796;6.942;2023-08-12T12:27:38;22.20;99.90
52381;DHT22;38310;52.796;6.942;2023-08-12T12:30:09;22.00;99.90
52381;DHT22;38310;52.796;6.942;2023-08-12T12:32:35;22.30;99.90
52381;DHT22;38310;52.796;6.942;2023-08-12T12:35:01;22.20;99.90
52381;DHT22;38310;52.796;6.942;2023-08-12T12:37:27;22.60;99.90
52381;DHT22;38310;52.796;6.942;2023-08-12T12:39:53;22.90;99.90
52381;DHT22;38310;52.796;6.942;2023-08-12T12:42:19;22.70;99.90
52381;DHT22;38310;52.796;6.942;2023-08-12T12:44:44;22.90;99.90
52381;DHT22;38310;52.796;6.942;2023-08-12T12:47:10;22.80;99.90
52381;DHT22;38310;52.796;6.942;2023-08-12T12:49:38;22.50;99.90
52381;DHT22;38310;52.796;6.942;2023-08-12T12:52:04;22.50;99.90
52381;DHT22;38310;52.796;6.942;2023-08-12T12:54:30;22.80;99.90
52381;DHT22;38310;52.796;6.942;2023-08-12T12:56:56;22.90;99.90
52381;DHT22;38310;52.796;6.942;2023-08-12T12:59:22;23.00;99.90
52381;DHT22;38310;52.796;6.942;2023-08-12T13:01:48;23.10;99.90
52381;DHT22;38310;52.796;6.942;2023-08-12T13:04:14;23.20;99.90
52381;DHT22;38310;52.796;6.942;2023-08-12T13:06:40;23.30;99.90
52381;DHT22;38310;52.796;6.942;2023-08-12T13:09:06;23.90;99.90
52381;DHT22;38310;52.796;6.942;2023-08-12T13:11:33;24.10;99.90
52381;DHT22;38310;52.796;6.942;2023-08-12T13:14:03;24.20;99.90
52381;DHT22;38310;52.796;6.942;2023-08-12T13:16:29;24.50;99.90
52381;DHT22;38310;52.796;6.942;2023-08-12T13:18:56;24.50;99.90
52381;DHT22;38310;52.796;6.942;2023-08-12T13:21:24;24.40;99.90
52381;DHT22;38310;52.796;6.942;2023-08-12T13:23:50;24.70;99.90
52381;DHT22;38310;52.796;6.942;2023-08-12T13:26:16;24.80;99.90
52381;DHT22;38310;52.796;6.942;2023-08-12T13:28:43;25.00;99.90
52381;DHT22;38310;52.796;6.942;2023-08-12T13:31:09;25.00;99.90
52381;DHT22;38310;52.796;6.942;2023-08-12T13:33:35;25.30;99.90
52381;DHT22;38310;52.796;6.942;2023-08-12T13:36:01;25.60;99.90
52381;DHT22;38310;52.796;6.942;2023-08-12T13:38:27;25.90;99.90
52381;DHT22;38310;52.796;6.942;2023-08-12T13:40:52;26.10;99.90
52381;DHT22;38310;52.796;6.942;2023-08-12T13:43:18;25.80;99.90
52381;DHT22;38310;52.796;6.942;2023-08-12T13:45:44;25.70;99.90
52381;DHT22;38310;52.796;6.942;2023-08-12T13:48:10;26.00;99.90
52381;DHT22;38310;52.796;6.942;2023-08-12T13:50:36;25.90;99.90
52381;DHT22;38310;52.796;6.942;2023-08-12T13:53:02;26.10;99.90
52381;DHT22;38310;52.796;6.942;2023-08-12T13:55:28;26.30;99.90
52381;DHT22;38310;52.796;6.942;2023-08-12T13:57:54;26.50;99.90
52381;DHT22;38310;52.796;6.942;2023-08-12T14:00:20;26.20;99.90
52381;DHT22;38310;52.796;6.942;2023-08-12T14:02:46;26.70;99.90
52381;DHT22;38310;52.796;6.942;2023-08-12T14:05:14;26.50;99.90
52381;DHT22;38310;52.796;6.942;2023-08-12T14:07:40;26.50;99.90
52381;DHT22;38310;52.796;6.942;2023-08-12T14:10:06;26.40;99.90
52381;DHT22;38310;52.796;6.942;2023-08-12T14:12:32;26.40;99.90
52381;DHT22;38310;52.796;6.942;2023-08-12T14:14:58;26.40;99.90
52381;DHT22;38310;52.796;6.942;2023-08-12T14:17:24;26.40;99.90
52381;DHT22;38310;52.796;6.942;2023-08-12T14:19:51;26.40;99.90
52381;DHT22;38310;52.796;6.942;2023-08-12T14:22:19;26.60;99.90
52381;DHT22;38310;52.796;6.942;2023-08-12T14:24:45;26.70;99.90
52381;DHT22;38310;52.796;6.942;2023-08-12T14:27:14;26.90;99.90
52381;DHT22;38310;52.796;6.942;2023-08-12T14:29:40;27.00;99.90
52381;DHT22;38310;52.796;6.942;2023-08-12T14:32:06;27.10;99.90
52381;DHT22;38310;52.796;6.942;2023-08-12T14:34:31;26.70;99.90
52381;DHT22;38310;52.796;6.942;2023-08-12T14:36:57;26.90;99.90
52381;DHT22;38310;52.796;6.942;2023-08-12T14:39:23;26.80;99.90
52381;DHT22;38310;52.796;6.942;2023-08-12T14:41:48;26.50;99.90
52381;DHT22;38310;52.796;6.942;2023-08-12T14:44:14;26.70;99.90
52381;DHT22;38310;52.796;6.942;2023-08-12T14:46:41;26.10;99.90
52381;DHT22;38310;52.796;6.942;2023-08-12T14:49:07;26.30;99.90
52381;DHT22;38310;52.796;6.942;2023-08-12T14:51:32;26.50;99.90
52381;DHT22;38310;52.796;6.942;2023-08-12T14:53:58;26.30;99.90
52381;DHT22;38310;52.796;6.942;2023-08-12T14:56:24;26.10;99.90
52381;DHT22;38310;52.796;6.942;2023-08-12T14:58:50;26.10;99.90
52381;DHT22;38310;52.796;6.942;2023-08-12T15:01:15;26.00;99.90
52381;DHT22;38310;52.796;6.942;2023-08-12T15:03:42;25.80;99.90
52381;DHT22;38310;52.796;6.942;2023-08-12T15:06:07;25.60;99.90
52381;DHT22;38310;52.796;6.942;2023-08-12T15:08:33;25.60;99.90
52381;DHT22;38310;52.796;6.942;2023-08-12T15:10:59;25.60;99.90
52381;DHT22;38310;52.796;6.942;2023-08-12T15:13:25;25.50;99.90
52381;DHT22;38310;52.796;6.942;2023-08-12T15:15:51;25.40;99.90
52381;DHT22;38310;52.796;6.942;2023-08-12T15:18:18;25.20;99.90
52381;DHT22;38310;52.796;6.942;2023-08-12T15:20:44;24.80;99.90
52381;DHT22;38310;52.796;6.942;2023-08-12T15:23:10;25.10;99.90
52381;DHT22;38310;52.796;6.942;2023-08-12T15:25:36;25.00;99.90
52381;DHT22;38310;52.796;6.942;2023-08-12T15:28:02;24.90;99.90
52381;DHT22;38310;52.796;6.942;2023-08-12T15:30:29;24.90;99.90